| time (UTC) | temp F | wind direction | speed MPH | gust MPH | rain 1hr in | rain 24hr in | rain mn in | humidity % | barometer mb |
| 20260509031437 | 62 | 144 | 0.0 | 0.0 | 0.00 | 0.00 | 0.00 | 41 | 1015.2 |
| 20260509030243 | 62 | 136 | 0.0 | 0.0 | 0.00 | 0.00 | 0.00 | 40 | 1015.1 |
| 20260509025017 | 63 | 147 | 0.0 | 0.0 | 0.00 | 0.00 | 0.00 | 40 | 1015.1 |
| 20260509023746 | 64 | 136 | 0.0 | 0.0 | 0.00 | 0.00 | 0.00 | 39 | 1015.1 |
| 20260509022614 | 65 | 171 | 0.0 | 0.0 | 0.00 | 0.00 | 0.00 | 38 | 1015.1 |
| 20260509020124 | 65 | 158 | 0.0 | 0.0 | 0.00 | 0.00 | 0.00 | 39 | 1015.1 |
| 20260509014915 | 65 | 183 | 0.0 | 0.0 | 0.00 | 0.00 | 0.00 | 40 | 1015.2 |
| 20260509013652 | 64 | 198 | 0.0 | 0.0 | 0.00 | 0.00 | 0.00 | 42 | 1015.3 |
| 20260509012413 | 64 | 196 | 1.0 | 12.0 | 0.00 | 0.00 | 0.00 | 40 | 1015.3 |
| 20260509011229 | 64 | 191 | 2.0 | 14.0 | 0.00 | 0.00 | 0.00 | 39 | 1015.4 |
| 20260509010052 | 65 | 179 | 4.0 | 14.0 | 0.00 | 0.00 | 0.00 | 37 | 1015.3 |
| 20260509004912 | 65 | 187 | 3.0 | 14.0 | 0.00 | 0.00 | 0.00 | 37 | 1015.2 |
| 20260509003659 | 65 | 211 | 2.0 | 12.0 | 0.00 | 0.00 | 0.00 | 37 | 1015.2 |
| 20260509002430 | 66 | 200 | 2.0 | 15.0 | 0.00 | 0.00 | 0.00 | 37 | 1015.3 |
| 20260508235910 | 67 | 222 | 2.0 | 12.0 | 0.00 | 0.00 | 0.00 | 34 | 1015.3 |
| 20260508234720 | 67 | 188 | 2.0 | 14.0 | 0.00 | 0.00 | 0.00 | 37 | 1015.3 |
| 20260508233454 | 67 | 175 | 0.0 | 1.0 | 0.00 | 0.00 | 0.00 | 38 | 1015.3 |
| 20260508230946 | 66 | 231 | 0.0 | 0.0 | 0.00 | 0.00 | 0.00 | 41 | 1015.5 |
| 20260508225734 | 65 | 186 | 3.0 | 14.0 | 0.00 | 0.00 | 0.00 | 45 | 1015.5 |
| 20260508224602 | 65 | 202 | 0.0 | 9.0 | 0.00 | 0.00 | 0.00 | 45 | 1015.4 |
| 20260508223423 | 65 | 159 | 3.0 | 6.0 | 0.00 | 0.00 | 0.00 | 46 | 1015.6 |
| 20260508220948 | 65 | 219 | 1.0 | 14.0 | 0.00 | 0.00 | 0.00 | 47 | 1015.4 |
| 20260508215818 | 65 | 153 | 2.0 | 12.0 | 0.00 | 0.00 | 0.00 | 46 | 1015.6 |
| 20260508214632 | 65 | 157 | 1.0 | 9.0 | 0.00 | 0.00 | 0.00 | 46 | 1015.7 |
| 20260508213436 | 65 | 166 | 1.0 | 13.0 | 0.00 | 0.00 | 0.00 | 45 | 1015.8 |
| 20260508212227 | 64 | 163 | 3.0 | 15.0 | 0.00 | 0.00 | 0.00 | 45 | 1015.8 |
| 20260508211047 | 64 | 173 | 2.0 | 13.0 | 0.00 | 0.00 | 0.00 | 46 | 1015.9 |
| 20260508204605 | 63 | 180 | 4.0 | 16.0 | 0.00 | 0.00 | 0.00 | 45 | 1016.0 |
| 20260508203342 | 63 | 177 | 3.0 | 16.0 | 0.00 | 0.00 | 0.00 | 43 | 1015.8 |
| 20260508202110 | 64 | 184 | 4.0 | 14.0 | 0.00 | 0.00 | 0.00 | 43 | 1015.9 |
| 20260508200849 | 64 | 203 | 1.0 | 11.0 | 0.00 | 0.00 | 0.00 | 44 | 1015.8 |
| 20260508195714 | 64 | 217 | 1.0 | 10.0 | 0.00 | 0.00 | 0.00 | 44 | 1015.8 |
| 20260508193248 | 63 | 161 | 4.0 | 19.0 | 0.00 | 0.00 | 0.00 | 42 | 1015.9 |
| 20260508192030 | 63 | 179 | 2.0 | 13.0 | 0.00 | 0.00 | 0.00 | 40 | 1015.8 |
| 20260508190756 | 63 | 146 | 5.0 | 13.0 | 0.00 | 0.00 | 0.00 | 38 | 1015.9 |
| 20260508185614 | 63 | 196 | 1.0 | 8.0 | 0.00 | 0.00 | 0.00 | 40 | 1016.1 |
| 20260508184351 | 63 | 192 | 3.0 | 14.0 | 0.00 | 0.00 | 0.00 | 37 | 1016.1 |
| 20260508183142 | 63 | 158 | 4.0 | 20.0 | 0.00 | 0.00 | 0.00 | 38 | 1016.0 |
| 20260508181929 | 63 | 190 | 6.0 | 20.0 | 0.00 | 0.00 | 0.00 | 38 | 1016.0 |
| 20260508180747 | 63 | 144 | 4.0 | 16.0 | 0.00 | 0.00 | 0.00 | 37 | 1016.0 |
| 20260508175519 | 62 | 140 | 0.0 | 3.0 | 0.00 | 0.00 | 0.00 | 43 | 1016.1 |
| 20260508174250 | 62 | 112 | 1.0 | 4.0 | 0.00 | 0.00 | 0.00 | 44 | 1016.1 |
| 20260508173032 | 62 | 176 | 0.0 | 11.0 | 0.00 | 0.00 | 0.00 | 42 | 1016.1 |
| 20260508171820 | 61 | 158 | 0.0 | 9.0 | 0.00 | 0.00 | 0.00 | 41 | 1016.2 |
| 20260508170650 | 61 | 165 | 1.0 | 12.0 | 0.00 | 0.00 | 0.00 | 39 | 1016.1 |
| 20260508164101 | 61 | 147 | 0.0 | 10.0 | 0.00 | 0.00 | 0.00 | 38 | 1016.2 |
| 20260508161514 | 60 | 146 | 0.0 | 0.0 | 0.00 | 0.00 | 0.00 | 40 | 1016.1 |
| 20260508160335 | 60 | 186 | 0.0 | 0.0 | 0.00 | 0.00 | 0.00 | 40 | 1016.2 |
| 20260508155107 | 60 | 132 | 0.0 | 0.0 | 0.00 | 0.00 | 0.00 | 51 | 1016.2 |
| 20260508153835 | 59 | 126 | 0.0 | 0.0 | 0.00 | 0.00 | 0.00 | 53 | 1016.2 |
| 20260508152656 | 58 | 158 | 0.0 | 0.0 | 0.00 | 0.00 | 0.00 | 57 | 1016.3 |
| 20260508151519 | 57 | 159 | 0.0 | 0.0 | 0.00 | 0.00 | 0.00 | 61 | 1016.2 |
| 20260508144943 | 55 | 119 | 0.0 | 0.0 | 0.00 | 0.00 | 0.00 | 74 | 1016.1 |
| 20260508143740 | 54 | 130 | 0.0 | 0.0 | 0.00 | 0.00 | 0.00 | 76 | 1016.1 |
| 20260508142550 | 53 | 128 | 0.0 | 0.0 | 0.00 | 0.00 | 0.00 | 80 | 1016.1 |
| 20260508141409 | 53 | 142 | 0.0 | 0.0 | 0.00 | 0.00 | 0.00 | 80 | 1016.1 |
| 20260508140158 | 52 | 148 | 0.0 | 0.0 | 0.00 | 0.00 | 0.00 | 81 | 1016.0 |
| 20260508134918 | 52 | 142 | 0.0 | 5.0 | 0.00 | 0.00 | 0.00 | 82 | 1015.9 |
| 20260508133742 | 51 | 126 | 0.0 | 0.0 | 0.00 | 0.00 | 0.00 | 84 | 1015.9 |
| 20260508132528 | 50 | 123 | 0.0 | 1.0 | 0.00 | 0.00 | 0.00 | 85 | 1015.7 |
| 20260508131340 | 50 | 128 | 0.0 | 6.0 | 0.00 | 0.00 | 0.00 | 85 | 1015.6 |
| 20260508130157 | 50 | 118 | 0.0 | 1.0 | 0.00 | 0.00 | 0.00 | 85 | 1015.5 |
| 20260508124917 | 50 | 136 | 0.0 | 0.0 | 0.00 | 0.00 | 0.00 | 85 | 1015.4 |
| 20260508122401 | 50 | 139 | 0.0 | 0.0 | 0.00 | 0.00 | 0.00 | 86 | 1015.2 |
| 20260508115819 | 50 | 126 | 0.0 | 1.0 | 0.00 | 0.00 | 0.00 | 85 | 1015.1 |
| 20260508114621 | 50 | 141 | 0.0 | 0.0 | 0.00 | 0.00 | 0.00 | 85 | 1015.2 |
| 20260508113435 | 50 | 135 | 0.0 | 3.0 | 0.00 | 0.00 | 0.00 | 85 | 1015.1 |
| 20260508112254 | 50 | 156 | 0.0 | 0.0 | 0.00 | 0.00 | 0.00 | 85 | 1015.2 |
| 20260508111023 | 50 | 136 | 0.0 | 0.0 | 0.00 | 0.00 | 0.00 | 85 | 1015.2 |
| 20260508104435 | 50 | 132 | 0.0 | 0.0 | 0.00 | 0.00 | 0.00 | 81 | 1015.0 |
| 20260508101916 | 52 | 135 | 0.0 | 1.0 | 0.00 | 0.00 | 0.00 | 79 | 1014.9 |
| 20260508100728 | 52 | 181 | 0.0 | 0.0 | 0.00 | 0.00 | 0.00 | 79 | 1015.1 |
| 20260508095520 | 52 | 157 | 0.0 | 5.0 | 0.00 | 0.00 | 0.00 | 79 | 1014.9 |
| 20260508094254 | 52 | 132 | 0.0 | 0.0 | 0.00 | 0.00 | 0.00 | 81 | 1014.8 |
| 20260508093053 | 52 | 128 | 0.0 | 0.0 | 0.00 | 0.00 | 0.00 | 81 | 1014.8 |
| 20260508091852 | 52 | 143 | 0.0 | 0.0 | 0.00 | 0.00 | 0.00 | 80 | 1014.8 |
| 20260508090643 | 53 | 126 | 0.0 | 0.0 | 0.00 | 0.00 | 0.00 | 80 | 1014.9 |
| 20260508085403 | 53 | 116 | 0.0 | 0.0 | 0.00 | 0.00 | 0.00 | 77 | 1014.9 |
| 20260508084229 | 54 | 126 | 0.0 | 0.0 | 0.00 | 0.00 | 0.00 | 75 | 1014.9 |
| 20260508083029 | 54 | 139 | 0.0 | 0.0 | 0.00 | 0.00 | 0.00 | 74 | 1014.8 |
| 20260508081808 | 55 | 136 | 0.0 | 0.0 | 0.00 | 0.00 | 0.00 | 74 | 1014.8 |
| 20260508080533 | 55 | 151 | 0.0 | 0.0 | 0.00 | 0.00 | 0.00 | 74 | 1014.7 |
| 20260508075336 | 55 | 149 | 0.0 | 0.0 | 0.00 | 0.00 | 0.00 | 74 | 1014.7 |
| 20260508072749 | 55 | 139 | 0.0 | 0.0 | 0.00 | 0.00 | 0.00 | 74 | 1014.5 |
| 20260508071614 | 56 | 140 | 0.0 | 0.0 | 0.00 | 0.00 | 0.00 | 72 | 1014.5 |
| 20260508070435 | 56 | 141 | 0.0 | 0.0 | 0.00 | 0.00 | 0.00 | 72 | 1014.5 |
| 20260508063834 | 57 | 130 | 0.0 | 0.0 | 0.00 | 0.00 | 0.00 | 70 | 1014.5 |
| 20260508062643 | 58 | 137 | 0.0 | 3.0 | 0.00 | 0.00 | 0.00 | 68 | 1014.5 |
| 20260508061505 | 58 | 140 | 0.0 | 0.0 | 0.00 | 0.00 | 0.00 | 67 | 1014.5 |
| 20260508060245 | 59 | 132 | 0.0 | 4.0 | 0.00 | 0.00 | 0.00 | 66 | 1014.3 |
| 20260508055058 | 59 | 144 | 0.0 | 0.0 | 0.00 | 0.00 | 0.00 | 64 | 1014.2 |
| 20260508053841 | 60 | 134 | 0.0 | 0.0 | 0.00 | 0.00 | 0.00 | 63 | 1014.3 |
| 20260508051345 | 61 | 163 | 0.0 | 0.0 | 0.00 | 0.00 | 0.00 | 59 | 1014.3 |
| 20260508050156 | 62 | 152 | 0.0 | 1.0 | 0.00 | 0.00 | 0.00 | 59 | 1014.3 |
| 20260508044946 | 62 | 134 | 0.0 | 0.0 | 0.00 | 0.00 | 0.00 | 57 | 1014.3 |
| 20260508043706 | 63 | 138 | 0.0 | 0.0 | 0.00 | 0.00 | 0.00 | 56 | 1014.3 |
| 20260508041104 | 64 | 185 | 0.0 | 0.0 | 0.00 | 0.00 | 0.00 | 52 | 1014.2 |
| 20260508035832 | 64 | 182 | 0.0 | 0.0 | 0.00 | 0.00 | 0.00 | 51 | 1014.0 |
| 20260508034635 | 65 | 148 | 0.0 | 0.0 | 0.00 | 0.00 | 0.00 | 51 | 1014.0 |
| 20260508033415 | 65 | 167 | 0.0 | 0.0 | 0.00 | 0.00 | 0.00 | 51 | 1013.9 |